createdAt,value
2023-03-23T16:00:21.373Z,48.11
2023-03-23T16:02:58.770Z,47.75
2023-03-23T16:05:30.110Z,47.95
2023-03-23T16:08:00.850Z,47.58
2023-03-23T16:10:31.759Z,47.55
2023-03-23T16:13:02.987Z,47.84
2023-03-23T16:15:33.744Z,47.70
2023-03-23T16:18:07.159Z,47.88
2023-03-23T16:20:38.462Z,47.95
2023-03-23T16:23:12.060Z,47.60
2023-03-23T16:25:42.888Z,47.94
2023-03-23T16:28:15.018Z,47.92
2023-03-23T16:30:46.374Z,47.78
2023-03-23T16:33:17.345Z,47.92
2023-03-23T16:35:50.393Z,47.75
2023-03-23T16:38:21.306Z,47.73
2023-03-23T16:40:54.125Z,47.48
2023-03-23T16:43:25.065Z,46.96
2023-03-23T16:45:58.784Z,47.15
2023-03-23T16:48:30.067Z,47.05
2023-03-23T16:51:00.987Z,47.11
2023-03-23T16:53:32.018Z,46.88
2023-03-23T16:56:03.474Z,46.74
2023-03-23T16:58:34.302Z,46.64
2023-03-23T17:01:06.903Z,47.07
2023-03-23T17:03:37.478Z,46.98
2023-03-23T17:06:08.562Z,47.01
2023-03-23T17:08:39.332Z,46.81
2023-03-23T17:11:12.374Z,46.63
2023-03-23T17:13:43.096Z,46.41
2023-03-23T17:16:24.369Z,46.29
2023-03-23T17:18:55.245Z,46.67
2023-03-23T17:21:26.806Z,46.59
2023-03-23T17:23:58.224Z,46.84
2023-03-23T17:26:28.898Z,47.16
2023-03-23T17:28:59.549Z,47.08
2023-03-23T17:31:30.674Z,47.54
2023-03-23T17:34:01.812Z,47.64
2023-03-23T17:36:32.687Z,47.42
2023-03-23T17:39:04.196Z,47.79
2023-03-23T17:41:35.929Z,47.71
2023-03-23T17:44:10.069Z,47.81
2023-03-23T17:46:41.856Z,47.63
2023-03-23T17:49:12.570Z,47.40
2023-03-23T17:51:44.650Z,46.94
2023-03-23T17:54:17.148Z,46.36
2023-03-23T17:56:50.941Z,46.44
2023-03-23T17:59:22.822Z,46.05
2023-03-23T18:01:54.721Z,46.13
2023-03-23T18:04:28.105Z,46.09
2023-03-23T18:06:59.817Z,46.20
2023-03-23T18:09:31.672Z,45.79
2023-03-23T18:12:03.148Z,45.61
2023-03-23T18:14:33.979Z,45.46
2023-03-23T18:17:04.708Z,45.60
2023-03-23T18:19:35.343Z,45.33
2023-03-23T18:22:06.372Z,44.92
2023-03-23T18:24:37.255Z,44.99
2023-03-23T18:27:08.278Z,45.07
2023-03-23T18:29:38.939Z,44.95
2023-03-23T18:32:10.785Z,44.99
2023-03-23T18:34:51.019Z,44.88
2023-03-23T18:37:22.301Z,44.99
2023-03-23T18:39:54.633Z,44.89
2023-03-23T18:42:25.045Z,44.76
2023-03-23T18:44:56.556Z,44.76
2023-03-23T18:47:28.223Z,44.85
2023-03-23T18:50:00.512Z,44.79
2023-03-23T18:52:32.422Z,44.90
2023-03-23T18:55:03.775Z,44.77
2023-03-23T18:57:34.351Z,44.88
2023-03-23T19:00:05.742Z,45.10
2023-03-23T19:02:37.098Z,45.19
2023-03-23T19:05:09.833Z,45.37
2023-03-23T19:07:40.877Z,45.48
2023-03-23T19:10:11.925Z,45.46
2023-03-23T19:12:42.844Z,45.65
2023-03-23T19:15:22.478Z,45.67
2023-03-23T19:17:56.929Z,45.56
2023-03-23T19:20:57.196Z,45.87
2023-03-23T19:23:19.941Z,46.02
2023-03-23T19:25:51.416Z,45.71
2023-03-23T19:29:05.462Z,45.90
2023-03-23T19:31:16.508Z,46.15
2023-03-23T19:33:47.539Z,46.38
2023-03-23T19:36:18.830Z,46.00
2023-03-23T19:38:49.692Z,46.01
2023-03-23T19:41:20.723Z,46.29
2023-03-23T19:43:51.818Z,46.34
2023-03-23T19:46:22.540Z,46.10
2023-03-23T19:48:53.475Z,46.13
2023-03-23T19:51:26.835Z,46.13
2023-03-23T19:53:58.960Z,46.13
2023-03-23T19:56:33.629Z,46.10
2023-03-23T19:59:05.204Z,46.10
2023-03-23T20:01:36.036Z,46.14
2023-03-23T20:04:07.323Z,46.30
2023-03-23T20:06:38.490Z,46.06
2023-03-23T20:09:10.277Z,46.39
2023-03-23T20:11:41.739Z,46.18
2023-03-23T20:14:12.607Z,46.11
2023-03-23T20:16:43.812Z,46.05
2023-03-23T20:19:14.364Z,46.16
2023-03-23T20:21:45.883Z,46.23
2023-03-23T20:24:17.468Z,46.13
2023-03-23T20:26:48.462Z,46.13
2023-03-23T20:29:19.332Z,46.31
2023-03-23T20:31:53.862Z,46.15
2023-03-23T20:34:31.986Z,46.54
2023-03-23T20:37:03.703Z,46.58
2023-03-23T20:39:35.340Z,46.62
2023-03-23T20:42:07.466Z,47.22
2023-03-23T20:44:40.290Z,47.53
2023-03-23T20:47:13.173Z,47.71
2023-03-23T20:49:44.025Z,47.75
2023-03-23T20:52:28.061Z,48.28
2023-03-23T20:54:59.084Z,48.29
2023-03-23T20:57:29.736Z,47.93
2023-03-23T21:00:00.413Z,48.25
2023-03-23T21:02:31.680Z,48.44
2023-03-23T21:05:05.234Z,48.44
2023-03-23T21:07:37.048Z,48.58
2023-03-23T21:10:08.326Z,48.78
2023-03-23T21:12:41.678Z,48.81
2023-03-23T21:15:12.553Z,48.83
2023-03-23T21:17:43.725Z,48.91
2023-03-23T21:20:15.395Z,48.66
2023-03-23T21:22:46.268Z,49.04
2023-03-23T21:25:17.183Z,49.02
2023-03-23T21:27:48.522Z,48.99
2023-03-23T21:30:22.824Z,48.78
2023-03-23T21:32:53.471Z,49.23
2023-03-23T21:35:25.129Z,48.84
2023-03-23T21:37:55.746Z,49.34
2023-03-23T21:40:28.215Z,49.15
2023-03-23T21:42:59.462Z,49.10
2023-03-23T21:45:31.372Z,49.35
2023-03-23T21:48:05.631Z,49.14
2023-03-23T21:50:40.294Z,49.42
2023-03-23T21:53:13.689Z,49.33
2023-03-23T21:55:45.873Z,49.29
2023-03-23T21:58:16.484Z,49.19
2023-03-23T22:00:50.877Z,49.41
2023-03-23T22:03:25.963Z,49.23
2023-03-23T22:05:59.096Z,49.18
2023-03-23T22:08:33.973Z,49.29
2023-03-23T22:11:07.799Z,49.17
2023-03-23T22:13:40.329Z,49.43
2023-03-23T22:16:18.859Z,49.61
2023-03-23T22:18:52.215Z,49.54
2023-03-23T22:21:24.070Z,49.57
2023-03-23T22:23:56.893Z,49.80
2023-03-23T22:26:28.789Z,49.97
2023-03-23T22:29:00.612Z,49.86
2023-03-23T22:31:35.134Z,49.92
2023-03-23T22:34:07.371Z,49.93
2023-03-23T22:36:40.017Z,50.14
2023-03-23T22:39:10.973Z,50.28
2023-03-23T22:41:43.329Z,50.17
2023-03-23T22:44:19.116Z,50.27
2023-03-23T22:46:50.923Z,49.82
2023-03-23T22:49:21.914Z,49.70
2023-03-23T22:51:52.585Z,49.82
2023-03-23T22:54:24.477Z,50.09
2023-03-23T22:56:55.454Z,49.82
2023-03-23T22:59:26.077Z,49.92
2023-03-23T23:01:57.102Z,49.74
2023-03-23T23:04:28.322Z,49.70
2023-03-23T23:07:11.950Z,49.52
2023-03-23T23:09:44.749Z,49.59
2023-03-23T23:12:16.669Z,49.51
2023-03-23T23:14:47.821Z,49.93
2023-03-23T23:17:18.763Z,49.60
2023-03-23T23:19:49.437Z,49.77
2023-03-23T23:22:20.966Z,49.77
2023-03-23T23:24:51.847Z,49.56
2023-03-23T23:27:22.980Z,49.58
2023-03-23T23:29:54.040Z,49.67
2023-03-23T23:32:25.110Z,49.83
2023-03-23T23:34:56.136Z,50.02
2023-03-23T23:37:27.243Z,50.38
2023-03-23T23:39:57.954Z,50.69
2023-03-23T23:42:32.102Z,50.70
2023-03-23T23:45:04.113Z,50.53
2023-03-23T23:47:34.875Z,50.40
2023-03-23T23:50:08.335Z,50.13
2023-03-23T23:52:41.186Z,50.36
2023-03-23T23:55:16.386Z,50.58
2023-03-23T23:57:48.795Z,50.71
